sensor_id;sensor_type;location;lat;lon;timestamp;temperature;humidity
70986;DHT22;58645;43.068;25.610;2023-02-21T00:02:10;7.40;68.50
70986;DHT22;58645;43.068;25.610;2023-02-21T00:04:54;7.50;68.60
70986;DHT22;58645;43.068;25.610;2023-02-21T00:07:38;7.50;68.50
70986;DHT22;58645;43.068;25.610;2023-02-21T00:10:23;7.50;68.00
70986;DHT22;58645;43.068;25.610;2023-02-21T00:13:07;7.50;68.70
70986;DHT22;58645;43.068;25.610;2023-02-21T00:15:53;7.50;67.90
70986;DHT22;58645;43.068;25.610;2023-02-21T00:18:38;7.60;68.30
70986;DHT22;58645;43.068;25.610;2023-02-21T00:21:23;7.50;68.20
70986;DHT22;58645;43.068;25.610;2023-02-21T00:24:12;7.50;67.90
70986;DHT22;58645;43.068;25.610;2023-02-21T00:26:56;7.60;67.70
70986;DHT22;58645;43.068;25.610;2023-02-21T00:29:40;7.70;66.50
70986;DHT22;58645;43.068;25.610;2023-02-21T00:32:24;7.70;66.90
70986;DHT22;58645;43.068;25.610;2023-02-21T00:35:09;7.70;66.60
70986;DHT22;58645;43.068;25.610;2023-02-21T00:37:53;7.80;66.10
70986;DHT22;58645;43.068;25.610;2023-02-21T00:40:37;7.80;66.60
70986;DHT22;58645;43.068;25.610;2023-02-21T00:43:33;7.80;66.60
70986;DHT22;58645;43.068;25.610;2023-02-21T00:46:18;7.80;66.70
70986;DHT22;58645;43.068;25.610;2023-02-21T00:49:03;7.90;66.60
70986;DHT22;58645;43.068;25.610;2023-02-21T00:51:48;7.90;66.00
70986;DHT22;58645;43.068;25.610;2023-02-21T00:54:32;7.90;67.00
70986;DHT22;58645;43.068;25.610;2023-02-21T00:57:17;7.90;66.80
70986;DHT22;58645;43.068;25.610;2023-02-21T01:00:02;7.90;66.00
70986;DHT22;58645;43.068;25.610;2023-02-21T01:02:46;7.90;66.40
70986;DHT22;58645;43.068;25.610;2023-02-21T01:05:31;7.90;66.10
70986;DHT22;58645;43.068;25.610;2023-02-21T01:08:15;7.90;65.70
70986;DHT22;58645;43.068;25.610;2023-02-21T01:10:59;7.90;66.30
70986;DHT22;58645;43.068;25.610;2023-02-21T01:13:44;7.90;66.40
70986;DHT22;58645;43.068;25.610;2023-02-21T01:16:29;7.80;66.40
70986;DHT22;58645;43.068;25.610;2023-02-21T01:19:14;7.80;66.80
70986;DHT22;58645;43.068;25.610;2023-02-21T01:21:58;7.80;67.30
70986;DHT22;58645;43.068;25.610;2023-02-21T01:24:43;7.70;67.10
70986;DHT22;58645;43.068;25.610;2023-02-21T01:27:27;7.70;67.10
70986;DHT22;58645;43.068;25.610;2023-02-21T01:30:11;7.70;66.70
70986;DHT22;58645;43.068;25.610;2023-02-21T01:32:56;7.80;66.40
70986;DHT22;58645;43.068;25.610;2023-02-21T01:35:40;7.70;66.70
70986;DHT22;58645;43.068;25.610;2023-02-21T01:38:24;7.80;67.00
70986;DHT22;58645;43.068;25.610;2023-02-21T01:41:08;7.80;67.00
70986;DHT22;58645;43.068;25.610;2023-02-21T01:44:05;7.80;66.60
70986;DHT22;58645;43.068;25.610;2023-02-21T01:46:49;7.80;66.10
70986;DHT22;58645;43.068;25.610;2023-02-21T01:49:36;7.80;66.30
70986;DHT22;58645;43.068;25.610;2023-02-21T01:52:21;7.80;66.90
70986;DHT22;58645;43.068;25.610;2023-02-21T01:55:07;7.80;66.40
70986;DHT22;58645;43.068;25.610;2023-02-21T01:57:52;7.90;66.10
70986;DHT22;58645;43.068;25.610;2023-02-21T02:00:37;7.80;66.40
70986;DHT22;58645;43.068;25.610;2023-02-21T02:03:22;7.80;66.40
70986;DHT22;58645;43.068;25.610;2023-02-21T02:06:11;7.80;66.20
70986;DHT22;58645;43.068;25.610;2023-02-21T02:08:56;7.80;66.50
70986;DHT22;58645;43.068;25.610;2023-02-21T02:17:29;7.80;66.00
70986;DHT22;58645;43.068;25.610;2023-02-21T02:20:38;7.80;65.90
70986;DHT22;58645;43.068;25.610;2023-02-21T02:36:55;7.70;66.10
70986;DHT22;58645;43.068;25.610;2023-02-21T02:42:43;7.70;66.30
70986;DHT22;58645;43.068;25.610;2023-02-21T02:45:34;7.70;66.50
70986;DHT22;58645;43.068;25.610;2023-02-21T02:48:19;7.60;66.60
70986;DHT22;58645;43.068;25.610;2023-02-21T02:50:47;7.60;67.10
70986;DHT22;58645;43.068;25.610;2023-02-21T02:53:20;7.50;67.60
70986;DHT22;58645;43.068;25.610;2023-02-21T02:58:16;7.50;67.10
70986;DHT22;58645;43.068;25.610;2023-02-21T03:00:48;7.50;67.40
70986;DHT22;58645;43.068;25.610;2023-02-21T03:04:26;7.50;67.70
70986;DHT22;58645;43.068;25.610;2023-02-21T03:10:10;7.50;68.30
70986;DHT22;58645;43.068;25.610;2023-02-21T03:12:59;7.50;67.40
70986;DHT22;58645;43.068;25.610;2023-02-21T03:15:50;7.60;66.70
70986;DHT22;58645;43.068;25.610;2023-02-21T03:20:56;7.80;66.10
70986;DHT22;58645;43.068;25.610;2023-02-21T03:23:26;7.90;65.50
70986;DHT22;58645;43.068;25.610;2023-02-21T03:25:55;8.00;65.20
70986;DHT22;58645;43.068;25.610;2023-02-21T03:28:23;8.00;65.50
70986;DHT22;58645;43.068;25.610;2023-02-21T03:30:52;8.10;65.50
70986;DHT22;58645;43.068;25.610;2023-02-21T03:33:21;8.10;66.00
70986;DHT22;58645;43.068;25.610;2023-02-21T03:35:47;8.00;65.80
70986;DHT22;58645;43.068;25.610;2023-02-21T03:38:13;8.00;65.50
70986;DHT22;58645;43.068;25.610;2023-02-21T03:40:39;8.00;65.50
70986;DHT22;58645;43.068;25.610;2023-02-21T03:43:05;8.00;65.60
70986;DHT22;58645;43.068;25.610;2023-02-21T03:45:34;8.00;65.70
70986;DHT22;58645;43.068;25.610;2023-02-21T03:48:01;7.90;66.10
70986;DHT22;58645;43.068;25.610;2023-02-21T03:50:27;7.80;67.00
70986;DHT22;58645;43.068;25.610;2023-02-21T03:52:52;7.70;67.80
70986;DHT22;58645;43.068;25.610;2023-02-21T03:55:18;7.60;67.70
70986;DHT22;58645;43.068;25.610;2023-02-21T03:57:44;7.60;67.90
70986;DHT22;58645;43.068;25.610;2023-02-21T04:00:11;7.60;67.70
70986;DHT22;58645;43.068;25.610;2023-02-21T04:02:37;7.60;68.20
70986;DHT22;58645;43.068;25.610;2023-02-21T04:05:03;7.60;68.50
70986;DHT22;58645;43.068;25.610;2023-02-21T04:07:29;7.60;68.90
70986;DHT22;58645;43.068;25.610;2023-02-21T04:09:55;7.50;68.70
70986;DHT22;58645;43.068;25.610;2023-02-21T04:12:20;7.50;68.70
70986;DHT22;58645;43.068;25.610;2023-02-21T04:14:46;7.50;68.70
70986;DHT22;58645;43.068;25.610;2023-02-21T04:17:12;7.50;68.70
70986;DHT22;58645;43.068;25.610;2023-02-21T04:19:38;7.50;68.70
70986;DHT22;58645;43.068;25.610;2023-02-21T04:22:03;7.50;68.40
70986;DHT22;58645;43.068;25.610;2023-02-21T04:24:29;7.60;68.10
70986;DHT22;58645;43.068;25.610;2023-02-21T04:26:55;7.60;68.10
70986;DHT22;58645;43.068;25.610;2023-02-21T04:29:21;7.60;67.80
70986;DHT22;58645;43.068;25.610;2023-02-21T04:31:46;7.70;67.90
70986;DHT22;58645;43.068;25.610;2023-02-21T04:34:12;7.70;67.80
70986;DHT22;58645;43.068;25.610;2023-02-21T04:36:38;7.80;67.50
70986;DHT22;58645;43.068;25.610;2023-02-21T04:39:05;7.90;67.20
70986;DHT22;58645;43.068;25.610;2023-02-21T04:41:31;8.00;66.70
70986;DHT22;58645;43.068;25.610;2023-02-21T04:43:57;8.10;66.40
70986;DHT22;58645;43.068;25.610;2023-02-21T04:46:22;8.20;65.80
70986;DHT22;58645;43.068;25.610;2023-02-21T04:48:50;8.30;65.40
70986;DHT22;58645;43.068;25.610;2023-02-21T04:51:17;8.40;65.20
70986;DHT22;58645;43.068;25.610;2023-02-21T04:53:46;8.40;65.20
70986;DHT22;58645;43.068;25.610;2023-02-21T04:56:12;8.50;65.20
70986;DHT22;58645;43.068;25.610;2023-02-21T04:58:38;8.50;64.70
70986;DHT22;58645;43.068;25.610;2023-02-21T05:01:04;8.50;64.60
70986;DHT22;58645;43.068;25.610;2023-02-21T05:03:30;8.50;64.50
70986;DHT22;58645;43.068;25.610;2023-02-21T05:05:56;8.60;64.30
70986;DHT22;58645;43.068;25.610;2023-02-21T05:08:21;8.60;64.30
70986;DHT22;58645;43.068;25.610;2023-02-21T05:10:48;8.60;64.20
70986;DHT22;58645;43.068;25.610;2023-02-21T05:13:15;8.60;64.10
70986;DHT22;58645;43.068;25.610;2023-02-21T05:15:41;8.60;63.90
70986;DHT22;58645;43.068;25.610;2023-02-21T05:18:06;8.70;64.10
70986;DHT22;58645;43.068;25.610;2023-02-21T05:20:32;8.70;64.20
70986;DHT22;58645;43.068;25.610;2023-02-21T05:22:58;8.70;64.20
70986;DHT22;58645;43.068;25.610;2023-02-21T05:25:24;8.70;64.20
70986;DHT22;58645;43.068;25.610;2023-02-21T05:27:51;8.70;63.90
70986;DHT22;58645;43.068;25.610;2023-02-21T05:32:45;8.80;63.80
70986;DHT22;58645;43.068;25.610;2023-02-21T05:35:16;8.90;63.70
70986;DHT22;58645;43.068;25.610;2023-02-21T05:37:42;8.90;63.50
70986;DHT22;58645;43.068;25.610;2023-02-21T05:40:11;8.90;63.10
70986;DHT22;58645;43.068;25.610;2023-02-21T05:42:37;9.00;63.20
70986;DHT22;58645;43.068;25.610;2023-02-21T05:45:03;9.10;63.70
70986;DHT22;58645;43.068;25.610;2023-02-21T05:47:33;9.10;64.40
70986;DHT22;58645;43.068;25.610;2023-02-21T05:49:59;9.10;63.20
70986;DHT22;58645;43.068;25.610;2023-02-21T05:52:26;9.20;62.90
70986;DHT22;58645;43.068;25.610;2023-02-21T05:54:55;9.30;62.90
70986;DHT22;58645;43.068;25.610;2023-02-21T05:57:21;9.40;63.00
70986;DHT22;58645;43.068;25.610;2023-02-21T05:59:47;9.60;62.80
70986;DHT22;58645;43.068;25.610;2023-02-21T06:02:16;10.20;62.60
70986;DHT22;58645;43.068;25.610;2023-02-21T06:04:41;11.10;60.80
70986;DHT22;58645;43.068;25.610;2023-02-21T06:07:07;12.30;57.30
70986;DHT22;58645;43.068;25.610;2023-02-21T06:09:33;13.50;54.60
70986;DHT22;58645;43.068;25.610;2023-02-21T06:11:59;14.30;52.30
70986;DHT22;58645;43.068;25.610;2023-02-21T06:14:25;15.30;49.40
70986;DHT22;58645;43.068;25.610;2023-02-21T06:16:51;15.70;46.50
70986;DHT22;58645;43.068;25.610;2023-02-21T06:19:17;16.40;44.50
70986;DHT22;58645;43.068;25.610;2023-02-21T06:21:44;17.70;43.20
70986;DHT22;58645;43.068;25.610;2023-02-21T06:24:11;18.50;40.00
70986;DHT22;58645;43.068;25.610;2023-02-21T06:26:38;19.00;38.80
70986;DHT22;58645;43.068;25.610;2023-02-21T06:29:05;19.30;38.10
70986;DHT22;58645;43.068;25.610;2023-02-21T06:31:31;20.10;37.10
70986;DHT22;58645;43.068;25.610;2023-02-21T06:33:58;20.10;35.60
70986;DHT22;58645;43.068;25.610;2023-02-21T06:36:25;20.70;35.70
70986;DHT22;58645;43.068;25.610;2023-02-21T06:38:53;22.40;33.20
70986;DHT22;58645;43.068;25.610;2023-02-21T06:41:26;23.10;31.20
70986;DHT22;58645;43.068;25.610;2023-02-21T06:43:54;23.00;31.70
70986;DHT22;58645;43.068;25.610;2023-02-21T06:46:22;22.10;31.60
70986;DHT22;58645;43.068;25.610;2023-02-21T06:48:48;21.50;32.40
70986;DHT22;58645;43.068;25.610;2023-02-21T06:51:14;21.30;33.20
70986;DHT22;58645;43.068;25.610;2023-02-21T06:53:41;21.90;32.20
70986;DHT22;58645;43.068;25.610;2023-02-21T06:56:07;23.00;30.10
70986;DHT22;58645;43.068;25.610;2023-02-21T06:58:33;23.00;27.90
70986;DHT22;58645;43.068;25.610;2023-02-21T07:00:59;23.20;28.00
70986;DHT22;58645;43.068;25.610;2023-02-21T07:03:25;23.50;27.00
70986;DHT22;58645;43.068;25.610;2023-02-21T07:05:51;23.80;26.70
70986;DHT22;58645;43.068;25.610;2023-02-21T07:08:17;24.20;25.80
70986;DHT22;58645;43.068;25.610;2023-02-21T07:10:43;24.80;25.30
70986;DHT22;58645;43.068;25.610;2023-02-21T07:13:09;25.20;23.60
70986;DHT22;58645;43.068;25.610;2023-02-21T07:15:34;25.40;23.50
70986;DHT22;58645;43.068;25.610;2023-02-21T07:18:00;25.30;23.40
70986;DHT22;58645;43.068;25.610;2023-02-21T07:20:26;24.30;23.90
70986;DHT22;58645;43.068;25.610;2023-02-21T07:22:52;23.80;24.50
70986;DHT22;58645;43.068;25.610;2023-02-21T07:25:20;22.40;26.00
70986;DHT22;58645;43.068;25.610;2023-02-21T07:27:47;21.90;26.70
70986;DHT22;58645;43.068;25.610;2023-02-21T07:30:14;22.20;26.30
70986;DHT22;58645;43.068;25.610;2023-02-21T07:32:41;22.40;26.00
70986;DHT22;58645;43.068;25.610;2023-02-21T07:35:07;22.80;25.30
70986;DHT22;58645;43.068;25.610;2023-02-21T07:37:33;23.40;23.60
70986;DHT22;58645;43.068;25.610;2023-02-21T07:39:59;23.20;23.30
70986;DHT22;58645;43.068;25.610;2023-02-21T07:42:24;22.80;24.40
70986;DHT22;58645;43.068;25.610;2023-02-21T07:44:56;23.20;23.20
70986;DHT22;58645;43.068;25.610;2023-02-21T07:47:23;23.10;23.60
70986;DHT22;58645;43.068;25.610;2023-02-21T07:49:49;24.10;22.20
70986;DHT22;58645;43.068;25.610;2023-02-21T07:52:16;24.40;21.10
70986;DHT22;58645;43.068;25.610;2023-02-21T07:54:42;24.60;20.70
70986;DHT22;58645;43.068;25.610;2023-02-21T07:57:17;25.00;20.20
70986;DHT22;58645;43.068;25.610;2023-02-21T07:59:44;24.40;20.70
70986;DHT22;58645;43.068;25.610;2023-02-21T08:02:13;24.30;21.00
70986;DHT22;58645;43.068;25.610;2023-02-21T08:04:40;24.00;21.50
70986;DHT22;58645;43.068;25.610;2023-02-21T08:07:07;24.40;21.00
70986;DHT22;58645;43.068;25.610;2023-02-21T08:09:32;25.20;20.20
70986;DHT22;58645;43.068;25.610;2023-02-21T08:11:58;25.60;18.90
70986;DHT22;58645;43.068;25.610;2023-02-21T08:14:24;25.40;19.20
70986;DHT22;58645;43.068;25.610;2023-02-21T08:16:50;26.20;19.00
70986;DHT22;58645;43.068;25.610;2023-02-21T08:19:16;26.90;17.40
70986;DHT22;58645;43.068;25.610;2023-02-21T08:21:46;26.90;17.10
70986;DHT22;58645;43.068;25.610;2023-02-21T08:24:12;27.30;17.20
70986;DHT22;58645;43.068;25.610;2023-02-21T08:26:39;27.50;16.30
70986;DHT22;58645;43.068;25.610;2023-02-21T08:29:07;27.40;16.30
70986;DHT22;58645;43.068;25.610;2023-02-21T08:31:37;27.10;16.90
70986;DHT22;58645;43.068;25.610;2023-02-21T08:34:04;27.40;16.50
70986;DHT22;58645;43.068;25.610;2023-02-21T08:36:36;27.60;16.20
70986;DHT22;58645;43.068;25.610;2023-02-21T08:39:03;28.10;16.20
70986;DHT22;58645;43.068;25.610;2023-02-21T08:41:40;28.30;15.70
70986;DHT22;58645;43.068;25.610;2023-02-21T08:44:07;28.30;15.30
70986;DHT22;58645;43.068;25.610;2023-02-21T08:46:34;28.30;17.30
70986;DHT22;58645;43.068;25.610;2023-02-21T08:49:00;27.50;17.00
70986;DHT22;58645;43.068;25.610;2023-02-21T08:51:28;27.70;16.30
70986;DHT22;58645;43.068;25.610;2023-02-21T08:53:54;27.60;16.50
70986;DHT22;58645;43.068;25.610;2023-02-21T08:56:20;28.00;16.40
70986;DHT22;58645;43.068;25.610;2023-02-21T08:58:47;28.20;15.80
70986;DHT22;58645;43.068;25.610;2023-02-21T09:01:13;27.90;15.20
70986;DHT22;58645;43.068;25.610;2023-02-21T09:03:39;28.20;15.80
70986;DHT22;58645;43.068;25.610;2023-02-21T09:06:06;29.20;14.70
70986;DHT22;58645;43.068;25.610;2023-02-21T09:08:33;29.30;14.70
70986;DHT22;58645;43.068;25.610;2023-02-21T09:11:01;29.10;14.40
70986;DHT22;58645;43.068;25.610;2023-02-21T09:13:28;28.60;14.60
70986;DHT22;58645;43.068;25.610;2023-02-21T09:15:55;28.90;14.00
70986;DHT22;58645;43.068;25.610;2023-02-21T09:18:21;28.90;13.70
70986;DHT22;58645;43.068;25.610;2023-02-21T09:20:47;28.10;14.10
70986;DHT22;58645;43.068;25.610;2023-02-21T09:23:17;28.30;13.80
70986;DHT22;58645;43.068;25.610;2023-02-21T09:25:47;28.20;14.20
70986;DHT22;58645;43.068;25.610;2023-02-21T09:28:14;28.50;13.40
70986;DHT22;58645;43.068;25.610;2023-02-21T09:30:40;28.60;13.60
70986;DHT22;58645;43.068;25.610;2023-02-21T09:33:06;28.50;13.10
70986;DHT22;58645;43.068;25.610;2023-02-21T09:35:36;28.10;14.00
70986;DHT22;58645;43.068;25.610;2023-02-21T09:38:04;28.50;13.50
70986;DHT22;58645;43.068;25.610;2023-02-21T09:40:58;28.90;12.70
70986;DHT22;58645;43.068;25.610;2023-02-21T09:43:45;29.70;12.60
70986;DHT22;58645;43.068;25.610;2023-02-21T09:48:42;28.90;12.50
70986;DHT22;58645;43.068;25.610;2023-02-21T09:51:10;28.60;13.10
70986;DHT22;58645;43.068;25.610;2023-02-21T09:53:41;28.60;13.20
70986;DHT22;58645;43.068;25.610;2023-02-21T09:56:24;28.70;13.30
70986;DHT22;58645;43.068;25.610;2023-02-21T09:58:52;28.90;12.90
70986;DHT22;58645;43.068;25.610;2023-02-21T10:07:20;29.80;12.60
70986;DHT22;58645;43.068;25.610;2023-02-21T10:10:10;29.90;12.50
70986;DHT22;58645;43.068;25.610;2023-02-21T10:12:52;29.40;13.00
70986;DHT22;58645;43.068;25.610;2023-02-21T10:20:28;29.50;13.20
70986;DHT22;58645;43.068;25.610;2023-02-21T10:22:58;29.40;13.70
70986;DHT22;58645;43.068;25.610;2023-02-21T10:25:28;28.90;13.60
70986;DHT22;58645;43.068;25.610;2023-02-21T10:27:57;28.90;14.30
70986;DHT22;58645;43.068;25.610;2023-02-21T10:32:54;28.50;14.70
70986;DHT22;58645;43.068;25.610;2023-02-21T10:35:20;27.90;15.20
70986;DHT22;58645;43.068;25.610;2023-02-21T10:37:55;28.10;15.40
70986;DHT22;58645;43.068;25.610;2023-02-21T10:45:40;28.10;15.80
70986;DHT22;58645;43.068;25.610;2023-02-21T10:48:09;28.40;14.90
70986;DHT22;58645;43.068;25.610;2023-02-21T10:53:06;27.10;16.60
70986;DHT22;58645;43.068;25.610;2023-02-21T10:55:33;27.00;16.90
70986;DHT22;58645;43.068;25.610;2023-02-21T10:58:07;27.30;16.50
70986;DHT22;58645;43.068;25.610;2023-02-21T11:00:34;27.90;15.80
70986;DHT22;58645;43.068;25.610;2023-02-21T11:03:22;28.00;15.60
70986;DHT22;58645;43.068;25.610;2023-02-21T11:05:52;26.80;16.40
70986;DHT22;58645;43.068;25.610;2023-02-21T11:08:38;26.70;16.90
70986;DHT22;58645;43.068;25.610;2023-02-21T11:11:05;27.10;16.70
70986;DHT22;58645;43.068;25.610;2023-02-21T11:13:32;27.30;16.30
70986;DHT22;58645;43.068;25.610;2023-02-21T11:16:16;27.90;15.40
70986;DHT22;58645;43.068;25.610;2023-02-21T11:18:41;27.90;15.10
70986;DHT22;58645;43.068;25.610;2023-02-21T11:21:14;28.00;15.00
70986;DHT22;58645;43.068;25.610;2023-02-21T11:24:01;27.80;14.90
70986;DHT22;58645;43.068;25.610;2023-02-21T11:26:30;27.90;14.80
70986;DHT22;58645;43.068;25.610;2023-02-21T11:29:14;27.60;15.00
70986;DHT22;58645;43.068;25.610;2023-02-21T11:31:41;27.70;14.30
70986;DHT22;58645;43.068;25.610;2023-02-21T11:34:09;28.10;14.20
70986;DHT22;58645;43.068;25.610;2023-02-21T11:36:42;28.10;14.30
70986;DHT22;58645;43.068;25.610;2023-02-21T11:41:49;28.10;14.20
70986;DHT22;58645;43.068;25.610;2023-02-21T11:44:34;27.90;14.00
70986;DHT22;58645;43.068;25.610;2023-02-21T11:50:06;28.50;14.00
70986;DHT22;58645;43.068;25.610;2023-02-21T11:55:01;27.60;14.60
70986;DHT22;58645;43.068;25.610;2023-02-21T11:57:39;27.60;15.50
70986;DHT22;58645;43.068;25.610;2023-02-21T12:00:26;28.00;14.90
70986;DHT22;58645;43.068;25.610;2023-02-21T12:05:38;27.90;14.50
70986;DHT22;58645;43.068;25.610;2023-02-21T12:28:04;27.10;15.60
70986;DHT22;58645;43.068;25.610;2023-02-21T12:48:53;23.50;20.50
70986;DHT22;58645;43.068;25.610;2023-02-21T12:51:57;23.00;21.30
70986;DHT22;58645;43.068;25.610;2023-02-21T12:54:26;22.60;22.10
70986;DHT22;58645;43.068;25.610;2023-02-21T12:57:25;22.30;22.50
70986;DHT22;58645;43.068;25.610;2023-02-21T13:02:54;22.20;23.00
70986;DHT22;58645;43.068;25.610;2023-02-21T13:05:31;22.20;23.30
70986;DHT22;58645;43.068;25.610;2023-02-21T13:08:12;22.10;23.30
70986;DHT22;58645;43.068;25.610;2023-02-21T13:13:32;22.10;23.30
70986;DHT22;58645;43.068;25.610;2023-02-21T13:16:03;22.00;23.40
70986;DHT22;58645;43.068;25.610;2023-02-21T13:18:33;21.80;23.40
70986;DHT22;58645;43.068;25.610;2023-02-21T13:21:21;21.80;23.70
70986;DHT22;58645;43.068;25.610;2023-02-21T13:24:12;21.70;24.30
70986;DHT22;58645;43.068;25.610;2023-02-21T13:29:42;21.30;24.50
70986;DHT22;58645;43.068;25.610;2023-02-21T13:32:14;21.20;24.60
70986;DHT22;58645;43.068;25.610;2023-02-21T13:34:54;21.10;24.80
70986;DHT22;58645;43.068;25.610;2023-02-21T13:37:26;21.10;24.80
70986;DHT22;58645;43.068;25.610;2023-02-21T13:39:58;21.10;25.00
70986;DHT22;58645;43.068;25.610;2023-02-21T13:42:33;21.00;24.50
70986;DHT22;58645;43.068;25.610;2023-02-21T13:45:13;21.00;24.40
70986;DHT22;58645;43.068;25.610;2023-02-21T13:55:37;20.90;24.80
70986;DHT22;58645;43.068;25.610;2023-02-21T14:13:48;20.70;25.20
70986;DHT22;58645;43.068;25.610;2023-02-21T14:16:45;20.70;25.70
70986;DHT22;58645;43.068;25.610;2023-02-21T14:19:31;20.50;25.90
70986;DHT22;58645;43.068;25.610;2023-02-21T14:22:08;20.50;26.20
70986;DHT22;58645;43.068;25.610;2023-02-21T14:24:37;20.40;26.20
70986;DHT22;58645;43.068;25.610;2023-02-21T14:32:45;20.30;26.50
70986;DHT22;58645;43.068;25.610;2023-02-21T14:37:57;20.10;27.20
70986;DHT22;58645;43.068;25.610;2023-02-21T14:52:04;19.50;27.70
70986;DHT22;58645;43.068;25.610;2023-02-21T15:03:47;19.00;28.90
70986;DHT22;58645;43.068;25.610;2023-02-21T15:06:18;18.80;29.10
70986;DHT22;58645;43.068;25.610;2023-02-21T15:08:50;18.70;28.90
70986;DHT22;58645;43.068;25.610;2023-02-21T15:11:35;18.70;28.90
70986;DHT22;58645;43.068;25.610;2023-02-21T15:14:26;18.60;29.10
70986;DHT22;58645;43.068;25.610;2023-02-21T15:17:00;18.60;29.40
70986;DHT22;58645;43.068;25.610;2023-02-21T15:19:30;18.60;29.60
70986;DHT22;58645;43.068;25.610;2023-02-21T15:25:18;18.40;30.00
70986;DHT22;58645;43.068;25.610;2023-02-21T15:35:21;18.20;30.80
70986;DHT22;58645;43.068;25.610;2023-02-21T15:37:47;18.20;30.90
70986;DHT22;58645;43.068;25.610;2023-02-21T15:40:16;18.20;31.00
70986;DHT22;58645;43.068;25.610;2023-02-21T15:42:45;18.10;31.10
70986;DHT22;58645;43.068;25.610;2023-02-21T15:45:18;18.10;30.90
70986;DHT22;58645;43.068;25.610;2023-02-21T15:47:45;18.00;31.00
70986;DHT22;58645;43.068;25.610;2023-02-21T15:52:56;17.90;31.20
70986;DHT22;58645;43.068;25.610;2023-02-21T15:55:34;17.90;31.30
70986;DHT22;58645;43.068;25.610;2023-02-21T16:01:00;17.80;31.70
70986;DHT22;58645;43.068;25.610;2023-02-21T16:03:43;17.70;31.90
70986;DHT22;58645;43.068;25.610;2023-02-21T16:06:23;17.60;32.30
70986;DHT22;58645;43.068;25.610;2023-02-21T16:09:04;17.60;32.30
70986;DHT22;58645;43.068;25.610;2023-02-21T16:11:41;17.50;32.50
70986;DHT22;58645;43.068;25.610;2023-02-21T16:19:32;17.30;33.30
70986;DHT22;58645;43.068;25.610;2023-02-21T16:24:42;17.10;33.50
70986;DHT22;58645;43.068;25.610;2023-02-21T16:27:14;17.00;33.70
70986;DHT22;58645;43.068;25.610;2023-02-21T16:29:40;16.90;34.00
70986;DHT22;58645;43.068;25.610;2023-02-21T16:32:14;16.90;34.30
70986;DHT22;58645;43.068;25.610;2023-02-21T16:34:41;16.80;34.30
70986;DHT22;58645;43.068;25.610;2023-02-21T16:37:10;16.70;34.60
70986;DHT22;58645;43.068;25.610;2023-02-21T16:39:37;16.70;34.90
70986;DHT22;58645;43.068;25.610;2023-02-21T16:42:03;16.70;35.30
70986;DHT22;58645;43.068;25.610;2023-02-21T16:44:29;16.60;35.20
70986;DHT22;58645;43.068;25.610;2023-02-21T16:46:54;16.50;35.30
70986;DHT22;58645;43.068;25.610;2023-02-21T16:49:20;16.40;35.40
70986;DHT22;58645;43.068;25.610;2023-02-21T16:51:47;16.40;35.70
70986;DHT22;58645;43.068;25.610;2023-02-21T16:54:13;16.30;36.30
70986;DHT22;58645;43.068;25.610;2023-02-21T16:56:40;16.20;36.30
70986;DHT22;58645;43.068;25.610;2023-02-21T16:59:12;16.10;36.80
70986;DHT22;58645;43.068;25.610;2023-02-21T17:01:39;16.00;37.10
70986;DHT22;58645;43.068;25.610;2023-02-21T17:06:41;15.80;37.80
70986;DHT22;58645;43.068;25.610;2023-02-21T17:09:16;15.80;38.20
70986;DHT22;58645;43.068;25.610;2023-02-21T17:11:42;15.80;38.50
70986;DHT22;58645;43.068;25.610;2023-02-21T17:14:08;15.80;38.60
70986;DHT22;58645;43.068;25.610;2023-02-21T17:16:33;15.80;38.80
70986;DHT22;58645;43.068;25.610;2023-02-21T17:18:59;15.80;38.90
70986;DHT22;58645;43.068;25.610;2023-02-21T17:21:25;15.80;38.90
70986;DHT22;58645;43.068;25.610;2023-02-21T17:23:50;15.80;38.80
70986;DHT22;58645;43.068;25.610;2023-02-21T17:26:16;15.80;39.00
70986;DHT22;58645;43.068;25.610;2023-02-21T17:28:42;15.80;39.00
70986;DHT22;58645;43.068;25.610;2023-02-21T17:31:08;15.80;39.00
70986;DHT22;58645;43.068;25.610;2023-02-21T17:33:33;15.80;39.00
70986;DHT22;58645;43.068;25.610;2023-02-21T17:36:00;15.80;39.10
70986;DHT22;58645;43.068;25.610;2023-02-21T17:38:26;15.90;39.10
70986;DHT22;58645;43.068;25.610;2023-02-21T17:40:51;15.80;39.00
70986;DHT22;58645;43.068;25.610;2023-02-21T17:43:18;15.80;39.00
70986;DHT22;58645;43.068;25.610;2023-02-21T17:45:43;15.80;39.00
70986;DHT22;58645;43.068;25.610;2023-02-21T17:48:10;15.80;39.30
70986;DHT22;58645;43.068;25.610;2023-02-21T17:50:36;15.70;39.40
70986;DHT22;58645;43.068;25.610;2023-02-21T17:53:02;15.60;39.50
70986;DHT22;58645;43.068;25.610;2023-02-21T17:55:27;15.60;39.80
70986;DHT22;58645;43.068;25.610;2023-02-21T17:57:55;15.40;40.00
70986;DHT22;58645;43.068;25.610;2023-02-21T18:00:23;15.30;40.20
70986;DHT22;58645;43.068;25.610;2023-02-21T18:02:50;15.20;40.50
70986;DHT22;58645;43.068;25.610;2023-02-21T18:05:16;15.10;40.70
70986;DHT22;58645;43.068;25.610;2023-02-21T18:07:50;15.00;41.00
70986;DHT22;58645;43.068;25.610;2023-02-21T18:10:17;14.90;41.40
70986;DHT22;58645;43.068;25.610;2023-02-21T18:12:43;14.80;41.60
70986;DHT22;58645;43.068;25.610;2023-02-21T18:15:09;14.30;41.70
70986;DHT22;58645;43.068;25.610;2023-02-21T18:17:36;14.60;42.30
70986;DHT22;58645;43.068;25.610;2023-02-21T18:20:02;14.60;42.40
70986;DHT22;58645;43.068;25.610;2023-02-21T18:22:28;14.50;42.50
70986;DHT22;58645;43.068;25.610;2023-02-21T18:24:54;14.50;42.90
70986;DHT22;58645;43.068;25.610;2023-02-21T18:27:20;14.40;42.90
70986;DHT22;58645;43.068;25.610;2023-02-21T18:29:46;14.30;43.20
70986;DHT22;58645;43.068;25.610;2023-02-21T18:32:11;14.30;43.40
70986;DHT22;58645;43.068;25.610;2023-02-21T18:34:37;14.20;43.40
70986;DHT22;58645;43.068;25.610;2023-02-21T18:37:03;14.10;44.00
70986;DHT22;58645;43.068;25.610;2023-02-21T18:39:29;14.00;44.20
70986;DHT22;58645;43.068;25.610;2023-02-21T18:41:56;13.90;44.40
70986;DHT22;58645;43.068;25.610;2023-02-21T18:44:22;13.80;44.80
70986;DHT22;58645;43.068;25.610;2023-02-21T18:46:52;13.80;45.10
70986;DHT22;58645;43.068;25.610;2023-02-21T18:49:20;13.70;45.60
70986;DHT22;58645;43.068;25.610;2023-02-21T18:51:46;13.60;45.90
70986;DHT22;58645;43.068;25.610;2023-02-21T18:54:12;13.60;46.10
70986;DHT22;58645;43.068;25.610;2023-02-21T18:56:37;13.50;46.40
70986;DHT22;58645;43.068;25.610;2023-02-21T18:59:03;13.50;46.60
70986;DHT22;58645;43.068;25.610;2023-02-21T19:01:29;13.50;46.70
70986;DHT22;58645;43.068;25.610;2023-02-21T19:03:55;13.50;46.80